createdAt,value
2017-04-07T00:00:36.974Z,8.70
2017-04-07T00:01:36.958Z,8.50
2017-04-07T00:02:37.202Z,8.50
2017-04-07T00:03:37.126Z,8.80
2017-04-07T00:04:37.790Z,8.70
2017-04-07T00:05:37.707Z,8.50
2017-04-07T00:06:37.638Z,9.10
2017-04-07T00:07:37.587Z,8.80
2017-04-07T00:08:37.506Z,9.00
2017-04-07T00:09:37.414Z,8.80
2017-04-07T00:12:51.650Z,8.90
2017-04-07T00:13:51.622Z,9.10
2017-04-07T00:14:52.320Z,9.10
2017-04-07T00:15:52.250Z,8.90
2017-04-07T00:16:52.904Z,9.30
2017-04-07T00:17:52.910Z,9.20
2017-04-07T00:18:52.878Z,9.10
2017-04-07T00:20:52.887Z,8.90
2017-04-07T00:21:52.823Z,8.80
2017-04-07T00:22:52.762Z,9.00
2017-04-07T00:23:52.711Z,9.10
2017-04-07T00:24:53.382Z,9.00
2017-04-07T00:25:53.344Z,8.80
2017-04-07T00:26:54.091Z,9.00
2017-04-07T00:27:54.772Z,9.00
2017-04-07T00:28:54.696Z,8.90
2017-04-07T00:29:55.431Z,8.70
2017-04-07T00:30:56.086Z,8.60
2017-04-07T00:31:56.012Z,8.50
2017-04-07T00:32:55.936Z,8.60
2017-04-07T00:33:55.850Z,8.40
2017-04-07T00:34:56.534Z,8.70
2017-04-07T00:35:56.463Z,8.50
2017-04-07T00:36:56.446Z,8.40
2017-04-07T00:37:56.350Z,8.50
2017-04-07T00:38:56.266Z,8.80
2017-04-07T00:39:56.198Z,8.70
2017-04-07T00:40:56.911Z,8.80
2017-04-07T00:41:56.821Z,8.60
2017-04-07T00:42:56.778Z,8.80
2017-04-07T00:43:56.699Z,8.90
2017-04-07T00:44:56.612Z,8.90
2017-04-07T00:45:56.530Z,9.10
2017-04-07T00:46:56.474Z,8.90
2017-04-07T00:47:56.391Z,8.90
2017-04-07T00:48:56.342Z,9.00
2017-04-07T00:49:56.263Z,9.00
2017-04-07T00:51:56.435Z,9.00
2017-04-07T00:52:56.366Z,8.40
2017-04-07T00:53:56.290Z,8.80
2017-04-07T00:54:56.194Z,8.40
2017-04-07T00:56:57.074Z,8.40
2017-04-07T00:57:57.119Z,8.20
2017-04-07T00:58:57.130Z,8.10
2017-04-07T00:59:57.085Z,8.40
2017-04-07T01:00:57.151Z,8.30
2017-04-07T01:01:57.102Z,8.10
2017-04-07T01:02:57.075Z,8.00
2017-04-07T01:03:57.840Z,7.70
2017-04-07T01:04:57.870Z,7.80
2017-04-07T01:05:57.927Z,8.00
2017-04-07T01:06:57.879Z,7.70
2017-04-07T01:07:57.862Z,7.80
2017-04-07T01:08:57.842Z,7.70
2017-04-07T01:09:57.846Z,8.00
2017-04-07T01:10:58.702Z,7.70
2017-04-07T01:11:58.731Z,7.70
2017-04-07T01:12:58.718Z,7.70
2017-04-07T01:13:58.719Z,7.90
2017-04-07T01:14:58.670Z,7.70
2017-04-07T01:15:58.810Z,7.70
2017-04-07T01:16:59.519Z,7.40
2017-04-07T01:18:00.359Z,7.50
2017-04-07T01:19:01.070Z,7.70
2017-04-07T01:20:01.824Z,7.40
2017-04-07T01:21:01.844Z,7.60
2017-04-07T01:22:01.922Z,7.60
2017-04-07T01:23:02.638Z,7.60
2017-04-07T01:24:03.316Z,7.40
2017-04-07T01:25:03.283Z,7.50
2017-04-07T01:26:03.305Z,7.50
2017-04-07T01:27:03.258Z,7.50
2017-04-07T01:29:03.504Z,7.40
2017-04-07T01:30:04.229Z,7.50
2017-04-07T01:31:04.994Z,7.40
2017-04-07T01:32:05.063Z,7.50
2017-04-07T01:33:05.750Z,7.50
2017-04-07T01:34:05.687Z,7.40
2017-04-07T01:35:06.517Z,7.50
2017-04-07T01:36:07.262Z,7.50
2017-04-07T01:37:07.226Z,7.50
2017-04-07T01:38:08.028Z,7.50
2017-04-07T01:39:07.998Z,7.50
2017-04-07T01:40:07.975Z,7.80
2017-04-07T01:41:08.767Z,8.00
2017-04-07T01:43:09.654Z,7.70
2017-04-07T01:44:09.673Z,7.80
2017-04-07T01:45:09.618Z,8.30
2017-04-07T01:46:09.586Z,8.10
2017-04-07T01:47:09.623Z,8.10
2017-04-07T01:48:09.630Z,8.10
2017-04-07T01:49:09.602Z,8.00
2017-04-07T01:50:09.577Z,8.10
2017-04-07T01:51:10.379Z,8.00
2017-04-07T01:52:10.389Z,8.20
2017-04-07T01:54:10.524Z,8.10
2017-04-07T01:55:11.296Z,8.10
2017-04-07T01:56:11.367Z,8.10
2017-04-07T01:57:12.074Z,8.20
2017-04-07T01:58:12.786Z,8.10
2017-04-07T01:59:12.775Z,8.00
2017-04-07T02:00:12.715Z,8.40
2017-04-07T02:01:13.445Z,8.10
2017-04-07T02:02:14.163Z,8.10
2017-04-07T02:03:14.878Z,8.10
2017-04-07T02:04:15.539Z,8.00
2017-04-07T02:05:15.591Z,8.30
2017-04-07T02:06:15.553Z,8.30
2017-04-07T02:07:15.522Z,8.30
2017-04-07T02:08:16.222Z,8.10
2017-04-07T02:09:16.139Z,8.10
2017-04-07T02:11:36.842Z,8.10
2017-04-07T02:12:37.623Z,8.30
2017-04-07T02:14:11.298Z,8.30
2017-04-07T02:15:11.211Z,8.10
2017-04-07T02:16:11.142Z,8.10
2017-04-07T02:17:11.098Z,8.30
2017-04-07T02:18:11.920Z,8.00
2017-04-07T02:19:12.573Z,8.10
2017-04-07T02:20:12.525Z,8.10
2017-04-07T02:21:12.460Z,8.30
2017-04-07T02:22:12.474Z,8.10
2017-04-07T02:23:12.466Z,8.00
2017-04-07T02:24:13.215Z,8.10
2017-04-07T02:25:13.170Z,8.10
2017-04-07T02:26:13.289Z,8.10
2017-04-07T02:27:14.034Z,8.20
2017-04-07T02:28:13.963Z,8.00
2017-04-07T02:29:13.962Z,8.10
2017-04-07T02:30:13.946Z,7.90
2017-04-07T02:31:14.654Z,8.20
2017-04-07T02:32:15.356Z,8.30
2017-04-07T02:33:15.297Z,8.30
2017-04-07T02:34:15.987Z,8.30
2017-04-07T02:35:15.906Z,8.00
2017-04-07T02:36:16.577Z,8.10
2017-04-07T02:37:16.582Z,8.10
2017-04-07T02:38:16.512Z,8.10
2017-04-07T02:39:16.426Z,8.30
2017-04-07T02:40:16.343Z,8.30
2017-04-07T02:41:16.259Z,8.10
2017-04-07T02:42:16.982Z,8.10
2017-04-07T02:43:17.641Z,8.00
2017-04-07T02:44:17.606Z,8.20
2017-04-07T02:45:18.277Z,8.00
2017-04-07T02:46:18.222Z,8.10
2017-04-07T02:47:18.167Z,8.00
2017-04-07T02:48:18.079Z,7.90
2017-04-07T02:49:18.022Z,8.30
2017-04-07T02:50:17.952Z,7.70
2017-04-07T02:51:18.693Z,8.00
2017-04-07T02:52:19.425Z,7.90
2017-04-07T02:53:19.342Z,8.00
2017-04-07T02:54:19.283Z,7.90
2017-04-07T02:55:19.218Z,8.10
2017-04-07T02:56:19.858Z,7.80
2017-04-07T02:57:19.825Z,7.80
2017-04-07T02:58:19.748Z,7.80
2017-04-07T02:59:20.423Z,7.80
2017-04-07T03:00:20.347Z,8.10
2017-04-07T03:01:20.522Z,8.10
2017-04-07T03:02:20.501Z,8.00
2017-04-07T03:03:21.150Z,8.00
2017-04-07T03:04:21.734Z,8.10
2017-04-07T03:05:22.440Z,8.00
2017-04-07T03:07:22.545Z,8.00
2017-04-07T03:08:22.503Z,8.10
2017-04-07T03:09:22.448Z,8.10
2017-04-07T03:10:22.426Z,8.20
2017-04-07T03:11:22.343Z,8.20
2017-04-07T03:12:22.363Z,8.20
2017-04-07T03:13:22.286Z,8.10
2017-04-07T03:14:22.207Z,8.10
2017-04-07T03:15:22.868Z,8.10
2017-04-07T03:16:22.781Z,8.40
2017-04-07T03:17:22.723Z,8.00
2017-04-07T03:18:22.660Z,8.10
2017-04-07T03:19:23.322Z,8.00
2017-04-07T03:20:23.271Z,8.00
2017-04-07T03:21:23.938Z,8.00
2017-04-07T03:22:23.884Z,8.10
2017-04-07T03:23:23.826Z,8.00
2017-04-07T03:24:24.511Z,8.00
2017-04-07T03:25:24.535Z,8.20
2017-04-07T03:26:25.192Z,8.10
2017-04-07T03:27:25.137Z,8.00
2017-04-07T03:28:25.069Z,8.30
2017-04-07T03:29:25.742Z,8.20
2017-04-07T03:30:25.670Z,8.40
2017-04-07T03:31:25.614Z,8.20
2017-04-07T03:32:26.298Z,8.30
2017-04-07T03:33:26.242Z,8.30
2017-04-07T03:34:26.928Z,8.30
2017-04-07T03:35:26.872Z,8.30
2017-04-07T03:36:27.570Z,8.10
2017-04-07T03:37:27.530Z,8.10
2017-04-07T03:38:27.512Z,8.10
2017-04-07T03:39:28.191Z,8.10
2017-04-07T03:40:28.138Z,8.10
2017-04-07T03:41:28.854Z,8.30
2017-04-07T03:42:30.170Z,8.20
2017-04-07T03:44:30.309Z,8.20
2017-04-07T03:45:30.993Z,8.10
2017-04-07T03:46:30.970Z,8.20
2017-04-07T03:47:30.975Z,8.10
2017-04-07T03:48:30.938Z,8.40
2017-04-07T03:49:31.743Z,8.10
2017-04-07T03:50:31.702Z,8.10
2017-04-07T03:51:31.622Z,8.10
2017-04-07T03:52:31.585Z,8.40
2017-04-07T03:53:32.322Z,8.10
2017-04-07T03:54:32.258Z,8.00
2017-04-07T03:55:32.186Z,8.30
2017-04-07T03:57:32.281Z,8.00
2017-04-07T03:58:32.269Z,8.30
2017-04-07T03:59:32.227Z,8.10
2017-04-07T04:00:32.176Z,8.30
2017-04-07T04:01:32.110Z,8.10
2017-04-07T04:02:32.041Z,8.10
2017-04-07T04:04:32.341Z,8.00
2017-04-07T04:05:32.265Z,8.00
2017-04-07T04:06:32.226Z,8.40
2017-04-07T04:07:32.171Z,8.00
2017-04-07T04:08:32.395Z,8.30
2017-04-07T04:09:33.094Z,8.00
2017-04-07T04:10:33.030Z,7.90
2017-04-07T04:11:34.910Z,8.10
2017-04-07T04:12:44.167Z,7.70
2017-04-07T04:13:53.149Z,7.70
2017-04-07T04:14:53.069Z,8.00
2017-04-07T04:15:53.043Z,7.80
2017-04-07T04:16:53.746Z,8.20
2017-04-07T04:17:54.429Z,8.10
2017-04-07T04:18:54.398Z,8.10
2017-04-07T04:19:54.371Z,7.70
2017-04-07T04:20:54.326Z,8.00
2017-04-07T04:21:54.372Z,8.20
2017-04-07T04:22:54.315Z,8.10
2017-04-07T04:23:55.045Z,8.00
2017-04-07T04:24:55.001Z,8.00
2017-04-07T04:25:54.939Z,8.00
2017-04-07T04:26:55.626Z,7.90
2017-04-07T04:27:55.580Z,8.20
2017-04-07T04:28:56.290Z,7.80
2017-04-07T04:29:57.082Z,7.70
2017-04-07T04:30:57.023Z,7.90
2017-04-07T04:31:57.747Z,7.80
2017-04-07T04:32:58.430Z,7.70
2017-04-07T04:33:58.410Z,8.00
2017-04-07T04:34:58.366Z,7.70
2017-04-07T04:35:58.326Z,7.90
2017-04-07T04:36:58.322Z,7.80
2017-04-07T04:37:58.277Z,7.70
2017-04-07T04:38:58.237Z,8.00
2017-04-07T04:39:58.184Z,7.70
2017-04-07T04:40:58.137Z,7.70
2017-04-07T04:41:58.097Z,7.70
2017-04-07T04:42:58.038Z,7.80
2017-04-07T04:43:58.788Z,7.70
2017-04-07T04:44:58.722Z,7.80
2017-04-07T04:45:58.773Z,8.00
2017-04-07T04:46:59.447Z,8.00
2017-04-07T04:47:59.385Z,8.00
2017-04-07T04:49:00.834Z,7.70
2017-04-07T04:50:01.548Z,7.70
2017-04-07T04:51:02.252Z,8.00
2017-04-07T04:52:02.223Z,8.30
2017-04-07T04:53:02.158Z,8.20
2017-04-07T04:54:02.113Z,8.00
2017-04-07T04:55:02.086Z,8.20
2017-04-07T04:56:02.176Z,7.80
2017-04-07T04:57:02.152Z,8.20
2017-04-07T04:58:02.110Z,8.20
2017-04-07T04:59:03.077Z,8.00
2017-04-07T05:00:03.065Z,8.00
2017-04-07T05:01:03.770Z,8.00
2017-04-07T05:02:04.519Z,8.00
2017-04-07T05:03:04.462Z,8.00
2017-04-07T05:04:04.451Z,8.40
2017-04-07T05:05:04.401Z,8.00
2017-04-07T05:06:04.353Z,8.00
2017-04-07T05:07:04.415Z,8.10
2017-04-07T05:08:04.382Z,8.00
2017-04-07T05:09:04.981Z,8.00
2017-04-07T05:10:04.969Z,8.10
2017-04-07T05:12:21.953Z,8.00
2017-04-07T05:13:21.930Z,8.10
2017-04-07T05:14:21.909Z,8.00
2017-04-07T05:15:22.006Z,8.30
2017-04-07T05:16:22.718Z,8.10
2017-04-07T05:17:23.457Z,7.90
2017-04-07T05:18:24.137Z,7.90
2017-04-07T05:19:24.143Z,8.10
2017-04-07T05:20:24.094Z,7.70
2017-04-07T05:21:24.094Z,8.00
2017-04-07T05:22:24.776Z,8.00
2017-04-07T05:23:24.716Z,8.10
2017-04-07T05:24:25.470Z,8.20
2017-04-07T05:25:26.204Z,8.00
2017-04-07T05:26:26.166Z,8.30
2017-04-07T05:27:26.922Z,8.00
2017-04-07T05:28:26.894Z,8.20
2017-04-07T05:29:27.623Z,8.00
2017-04-07T05:30:28.381Z,8.10
2017-04-07T05:31:28.422Z,8.10
2017-04-07T05:32:28.400Z,8.10
2017-04-07T05:33:28.348Z,8.30
2017-04-07T05:35:28.474Z,8.10
2017-04-07T05:37:33.475Z,8.10
2017-04-07T05:39:12.440Z,8.00
2017-04-07T05:40:15.060Z,8.10
2017-04-07T05:41:24.822Z,8.10
2017-04-07T05:42:48.701Z,8.10
2017-04-07T05:43:48.817Z,8.30
2017-04-07T05:44:49.535Z,8.00
2017-04-07T05:45:50.294Z,8.30
2017-04-07T05:46:50.266Z,8.10
2017-04-07T05:48:47.505Z,8.00
2017-04-07T05:49:48.245Z,8.00
2017-04-07T05:50:48.936Z,8.10
2017-04-07T05:51:48.905Z,8.20
2017-04-07T05:52:48.852Z,8.10
2017-04-07T05:54:07.833Z,8.00
2017-04-07T05:55:07.938Z,8.20
2017-04-07T05:56:08.773Z,8.10
2017-04-07T05:57:09.511Z,8.10
2017-04-07T05:58:09.509Z,8.60
2017-04-07T05:59:09.522Z,8.20
2017-04-07T06:00:09.563Z,8.30
2017-04-07T06:01:09.598Z,8.60
2017-04-07T06:02:11.038Z,8.50
2017-04-07T06:03:11.821Z,8.20
2017-04-07T06:04:11.825Z,8.20
2017-04-07T06:05:11.883Z,8.00
2017-04-07T06:06:13.239Z,8.20
2017-04-07T06:07:13.250Z,8.20
2017-04-07T06:08:13.270Z,8.30
2017-04-07T06:09:13.261Z,8.10
2017-04-07T06:10:13.230Z,8.00
2017-04-07T06:11:30.702Z,8.10
2017-04-07T06:14:02.096Z,8.10
2017-04-07T06:15:02.166Z,8.10
2017-04-07T06:16:02.249Z,8.20
2017-04-07T06:17:02.293Z,8.40
2017-04-07T06:18:02.210Z,8.10
2017-04-07T06:19:02.875Z,8.10
2017-04-07T06:20:03.583Z,8.10
2017-04-07T06:21:04.405Z,8.40
2017-04-07T06:22:04.455Z,8.30
2017-04-07T06:23:04.627Z,8.60
2017-04-07T06:24:05.330Z,8.40
2017-04-07T06:25:05.275Z,8.30
2017-04-07T06:26:05.315Z,8.30
2017-04-07T06:27:05.293Z,8.70
2017-04-07T06:28:05.280Z,8.40
2017-04-07T06:29:06.054Z,8.50
2017-04-07T06:30:06.065Z,8.50
2017-04-07T06:31:06.129Z,8.60
2017-04-07T06:32:06.797Z,8.40
2017-04-07T06:33:06.765Z,8.60
2017-04-07T06:34:06.726Z,8.90
2017-04-07T06:35:06.698Z,8.90
2017-04-07T06:36:06.669Z,8.50
2017-04-07T06:37:07.329Z,8.80
2017-04-07T06:38:07.278Z,8.70
2017-04-07T06:39:07.218Z,9.10
2017-04-07T06:40:07.779Z,8.80
2017-04-07T06:41:07.833Z,9.00
2017-04-07T06:42:08.551Z,8.70
2017-04-07T06:43:09.260Z,8.80
2017-04-07T06:44:09.208Z,8.50
2017-04-07T06:45:09.167Z,8.70
2017-04-07T06:46:09.147Z,8.50
2017-04-07T06:47:09.081Z,9.10
2017-04-07T06:48:09.778Z,8.70
2017-04-07T06:49:09.833Z,8.80
2017-04-07T06:50:10.509Z,9.00
2017-04-07T06:51:10.582Z,9.10
2017-04-07T06:52:10.533Z,9.10
2017-04-07T06:53:11.297Z,9.00
2017-04-07T06:54:11.226Z,8.90
2017-04-07T06:55:11.907Z,9.00
2017-04-07T06:56:12.624Z,9.10
2017-04-07T06:58:12.770Z,8.80
2017-04-07T06:59:12.718Z,8.80
2017-04-07T07:00:12.678Z,8.90
2017-04-07T07:01:12.646Z,9.00
2017-04-07T07:02:12.670Z,8.80
2017-04-07T07:03:13.410Z,8.80
2017-04-07T07:04:14.081Z,8.90
2017-04-07T07:05:14.046Z,9.20
2017-04-07T07:06:14.007Z,9.00
2017-04-07T07:07:13.986Z,9.10
2017-04-07T07:08:13.957Z,9.00
2017-04-07T07:09:13.915Z,8.90
2017-04-07T07:10:13.930Z,9.00
2017-04-07T07:11:13.885Z,9.00
2017-04-07T07:12:13.846Z,9.00
2017-04-07T07:13:13.834Z,9.20
2017-04-07T07:14:13.798Z,9.10
2017-04-07T07:15:13.813Z,9.40
2017-04-07T07:16:14.498Z,8.90
2017-04-07T07:17:15.223Z,9.40
2017-04-07T07:18:15.926Z,9.30
2017-04-07T07:19:15.885Z,9.40
2017-04-07T07:20:15.838Z,9.40
2017-04-07T07:21:15.827Z,9.20
2017-04-07T07:22:15.850Z,9.50
2017-04-07T07:23:15.815Z,9.40
2017-04-07T07:24:15.782Z,9.20
2017-04-07T07:25:15.874Z,9.30
2017-04-07T07:26:15.894Z,9.30
2017-04-07T07:27:15.901Z,9.50
2017-04-07T07:28:16.646Z,9.20
2017-04-07T07:29:17.409Z,9.50
2017-04-07T07:30:17.425Z,9.30
2017-04-07T07:31:17.450Z,9.50
2017-04-07T07:32:17.430Z,9.40
2017-04-07T07:33:17.413Z,9.40
2017-04-07T07:34:17.369Z,9.30
2017-04-07T07:35:17.392Z,9.40
2017-04-07T07:36:17.350Z,9.60
2017-04-07T07:37:17.362Z,9.30
2017-04-07T07:38:17.348Z,9.30
2017-04-07T07:39:17.310Z,9.60
2017-04-07T07:40:17.290Z,9.50
2017-04-07T07:41:20.590Z,9.60
2017-04-07T07:42:20.737Z,9.60
2017-04-07T07:43:20.706Z,9.30
2017-04-07T07:44:20.678Z,9.20
2017-04-07T07:45:20.635Z,9.40
2017-04-07T07:46:21.385Z,9.40
2017-04-07T07:47:22.117Z,9.40
2017-04-07T07:48:22.216Z,9.20
2017-04-07T07:49:23.006Z,9.40
2017-04-07T07:51:24.446Z,9.60
2017-04-07T07:52:24.442Z,9.60
2017-04-07T07:53:24.421Z,9.40
2017-04-07T07:54:24.426Z,9.90
2017-04-07T07:55:24.405Z,9.90
2017-04-07T07:56:24.546Z,9.80
2017-04-07T07:57:24.591Z,9.80
2017-04-07T07:58:24.598Z,10.00
2017-04-07T07:59:25.781Z,9.90
2017-04-07T08:00:25.790Z,10.00
2017-04-07T08:01:25.773Z,9.80
2017-04-07T08:02:26.517Z,9.80
2017-04-07T08:03:26.534Z,9.90
2017-04-07T08:04:26.535Z,10.30
2017-04-07T08:05:26.521Z,9.90
2017-04-07T08:06:27.269Z,9.90
2017-04-07T08:07:27.353Z,10.00
2017-04-07T08:08:28.065Z,9.80
2017-04-07T08:09:28.822Z,10.10
2017-04-07T08:10:40.682Z,10.20
2017-04-07T08:13:02.301Z,10.20
2017-04-07T08:14:03.025Z,10.30
2017-04-07T08:15:03.858Z,9.90
2017-04-07T08:16:03.885Z,10.00
2017-04-07T08:17:03.950Z,9.80
2017-04-07T08:18:03.946Z,10.30
2017-04-07T08:20:04.042Z,10.10
2017-04-07T08:21:04.014Z,10.10
2017-04-07T08:22:04.004Z,10.30
2017-04-07T08:23:04.006Z,10.20
2017-04-07T08:24:04.767Z,10.70
2017-04-07T08:25:04.715Z,10.50
2017-04-07T08:26:05.467Z,10.60
2017-04-07T08:27:05.417Z,10.60
2017-04-07T08:28:05.411Z,10.80
2017-04-07T08:29:05.418Z,10.70
2017-04-07T08:30:05.385Z,10.80
2017-04-07T08:31:06.194Z,10.70
2017-04-07T08:32:06.893Z,10.70
2017-04-07T08:33:06.889Z,10.70
2017-04-07T08:34:06.948Z,10.60
2017-04-07T08:35:07.625Z,10.70
2017-04-07T08:36:07.634Z,10.60
2017-04-07T08:37:07.621Z,10.70
2017-04-07T08:38:07.634Z,10.80
2017-04-07T08:39:07.658Z,10.90
2017-04-07T08:40:07.651Z,10.60
2017-04-07T08:41:07.656Z,11.10
2017-04-07T08:42:07.694Z,10.80
2017-04-07T08:44:07.845Z,10.80
2017-04-07T08:45:07.827Z,10.80
2017-04-07T08:46:08.565Z,10.90
2017-04-07T08:47:08.527Z,11.10
2017-04-07T08:48:08.497Z,11.00
2017-04-07T08:49:08.545Z,11.00
2017-04-07T08:51:08.684Z,11.30
2017-04-07T08:52:09.497Z,11.00
2017-04-07T08:53:09.460Z,11.30
2017-04-07T08:54:09.457Z,11.10
2017-04-07T08:55:09.414Z,11.10
2017-04-07T08:56:09.386Z,11.40
2017-04-07T08:57:09.367Z,11.20
2017-04-07T08:58:09.330Z,11.50
2017-04-07T09:00:10.375Z,11.40
2017-04-07T09:01:11.120Z,11.50
2017-04-07T09:02:11.063Z,11.50
2017-04-07T09:03:11.077Z,11.50
2017-04-07T09:04:11.098Z,11.80
2017-04-07T09:05:11.060Z,11.90
2017-04-07T09:06:10.999Z,11.60
2017-04-07T09:07:10.977Z,11.90
2017-04-07T09:08:11.589Z,11.60
2017-04-07T09:09:11.624Z,11.80
2017-04-07T09:10:19.363Z,11.50
2017-04-07T09:11:20.606Z,11.40
2017-04-07T09:12:20.621Z,11.40
2017-04-07T09:13:20.670Z,11.50
2017-04-07T09:14:20.724Z,11.50
2017-04-07T09:15:21.418Z,11.50
2017-04-07T09:16:21.642Z,11.60
2017-04-07T09:17:22.402Z,11.80
2017-04-07T09:18:22.421Z,11.80
2017-04-07T09:19:22.421Z,11.80
2017-04-07T09:20:22.737Z,11.90
2017-04-07T09:21:22.714Z,12.20
2017-04-07T09:22:23.486Z,11.90
2017-04-07T09:23:23.454Z,12.00
2017-04-07T09:24:24.157Z,11.90
2017-04-07T09:25:24.882Z,11.90
2017-04-07T09:26:25.713Z,11.90
2017-04-07T09:27:26.434Z,12.00
2017-04-07T09:28:27.193Z,12.30
2017-04-07T09:29:27.185Z,12.20
2017-04-07T09:30:29.086Z,12.60
2017-04-07T09:31:29.059Z,12.30
2017-04-07T09:32:29.068Z,12.70
2017-04-07T09:33:29.025Z,12.80
2017-04-07T09:34:29.754Z,12.90
2017-04-07T09:35:30.462Z,12.40
2017-04-07T09:36:30.402Z,12.90
2017-04-07T09:37:30.330Z,12.70
2017-04-07T09:38:30.322Z,12.60
2017-04-07T09:39:30.414Z,12.30
2017-04-07T09:40:30.394Z,12.60
2017-04-07T09:43:31.654Z,12.40
2017-04-07T09:44:32.430Z,12.60
2017-04-07T09:45:32.409Z,12.60
2017-04-07T09:46:32.374Z,12.70
2017-04-07T09:47:32.611Z,12.90
2017-04-07T09:48:33.314Z,12.90
2017-04-07T09:49:33.289Z,12.90
2017-04-07T09:50:33.341Z,12.70
2017-04-07T09:51:34.110Z,12.60
2017-04-07T09:52:34.129Z,12.60
2017-04-07T09:53:34.198Z,12.70
2017-04-07T09:54:34.970Z,12.50
2017-04-07T09:55:34.938Z,12.20
2017-04-07T09:56:34.950Z,12.40
2017-04-07T09:57:35.011Z,12.20
2017-04-07T09:58:34.961Z,12.40
2017-04-07T09:59:34.951Z,12.40
2017-04-07T10:00:35.685Z,12.30
2017-04-07T10:01:35.681Z,12.20
2017-04-07T10:02:36.422Z,12.20
2017-04-07T10:03:36.387Z,12.40
2017-04-07T10:04:36.370Z,12.30
2017-04-07T10:05:36.396Z,12.50
2017-04-07T10:06:36.636Z,12.30
2017-04-07T10:07:37.387Z,12.30
2017-04-07T10:08:37.365Z,12.60
2017-04-07T10:09:38.123Z,12.50
2017-04-07T10:10:38.168Z,12.60
2017-04-07T10:12:38.249Z,12.70
2017-04-07T10:13:38.282Z,12.90
2017-04-07T10:14:38.282Z,13.00
2017-04-07T10:15:38.260Z,13.30
2017-04-07T10:16:38.307Z,13.20
2017-04-07T10:17:38.298Z,13.10
2017-04-07T10:18:38.306Z,13.20
2017-04-07T10:19:38.594Z,13.00
2017-04-07T10:20:38.590Z,13.30
2017-04-07T10:21:38.621Z,13.10
2017-04-07T10:22:38.641Z,13.00
2017-04-07T10:23:38.625Z,13.10
2017-04-07T10:24:38.694Z,13.40
2017-04-07T10:25:39.433Z,13.10
2017-04-07T10:26:39.411Z,13.40
2017-04-07T10:27:39.377Z,13.40
2017-04-07T10:28:39.458Z,13.40
2017-04-07T10:29:40.141Z,13.40
2017-04-07T10:30:40.149Z,13.40
2017-04-07T10:31:40.118Z,13.40
2017-04-07T10:32:40.198Z,13.10
2017-04-07T10:33:40.201Z,13.40
2017-04-07T10:34:40.918Z,13.20
2017-04-07T10:35:41.870Z,13.30
2017-04-07T10:36:41.858Z,13.70
2017-04-07T10:37:41.859Z,13.70
2017-04-07T10:38:42.591Z,13.80
2017-04-07T10:39:42.562Z,13.70
2017-04-07T10:40:42.566Z,13.90
2017-04-07T10:41:42.554Z,13.90
2017-04-07T10:42:42.621Z,13.90
2017-04-07T10:43:42.573Z,13.80
2017-04-07T10:44:42.554Z,14.20
2017-04-07T10:45:42.531Z,14.00
2017-04-07T10:46:43.284Z,14.10
2017-04-07T10:47:43.257Z,14.10
2017-04-07T10:48:43.228Z,14.20
2017-04-07T10:49:43.193Z,14.20
2017-04-07T10:50:43.233Z,14.10
2017-04-07T10:51:43.294Z,14.30
2017-04-07T10:52:44.022Z,14.20
2017-04-07T10:53:43.973Z,14.30
2017-04-07T10:54:44.028Z,14.60
2017-04-07T10:55:44.786Z,14.70
2017-04-07T10:56:44.838Z,14.80
2017-04-07T10:57:45.569Z,14.70
2017-04-07T10:58:45.574Z,15.00
2017-04-07T10:59:46.298Z,14.80
2017-04-07T11:00:47.055Z,14.60
2017-04-07T11:01:47.030Z,14.80
2017-04-07T11:02:47.774Z,14.80
2017-04-07T11:03:47.861Z,15.10
2017-04-07T11:04:48.585Z,15.10
2017-04-07T11:05:49.342Z,14.80
2017-04-07T11:06:49.394Z,15.20
2017-04-07T11:07:49.357Z,14.90
2017-04-07T11:08:49.316Z,15.10
2017-04-07T11:09:50.066Z,14.80
2017-04-07T11:10:50.894Z,14.70
2017-04-07T11:11:51.789Z,14.70
2017-04-07T11:12:52.481Z,14.60
2017-04-07T11:13:52.433Z,14.80
2017-04-07T11:14:52.389Z,14.70
2017-04-07T11:15:52.459Z,14.70
2017-04-07T11:16:53.175Z,15.00
2017-04-07T11:17:53.878Z,14.90
2017-04-07T11:18:53.850Z,15.20
2017-04-07T11:19:54.825Z,15.10
2017-04-07T11:20:55.604Z,15.10
2017-04-07T11:21:55.594Z,15.10
2017-04-07T11:22:55.549Z,15.10
2017-04-07T11:23:55.494Z,15.20
2017-04-07T11:24:55.462Z,15.30
2017-04-07T11:25:55.446Z,15.80
2017-04-07T11:26:55.429Z,15.50
2017-04-07T11:27:55.393Z,15.30
2017-04-07T11:28:56.128Z,15.10
2017-04-07T11:29:56.821Z,15.30
2017-04-07T11:31:56.942Z,15.60
2017-04-07T11:32:57.703Z,15.70
2017-04-07T11:33:57.674Z,15.80
2017-04-07T11:34:58.376Z,16.00
2017-04-07T11:35:58.358Z,16.50
2017-04-07T11:36:58.421Z,16.70
2017-04-07T11:37:59.141Z,16.70
2017-04-07T11:38:59.874Z,16.60
2017-04-07T11:40:00.589Z,16.60
2017-04-07T11:41:01.329Z,17.00
2017-04-07T11:42:01.315Z,16.80
2017-04-07T11:44:01.558Z,17.10
2017-04-07T11:45:02.313Z,17.30
2017-04-07T11:46:02.406Z,17.30
2017-04-07T11:47:02.386Z,17.10
2017-04-07T11:48:03.115Z,17.00
2017-04-07T11:49:03.943Z,17.00
2017-04-07T11:50:04.649Z,16.40
2017-04-07T11:51:05.424Z,16.30
2017-04-07T11:52:05.530Z,16.40
2017-04-07T11:53:05.595Z,16.20
2017-04-07T11:54:06.436Z,16.40
2017-04-07T11:55:07.186Z,16.00
2017-04-07T11:56:07.373Z,15.90
2017-04-07T11:57:08.082Z,16.00
2017-04-07T11:58:08.789Z,15.80
2017-04-07T11:59:09.486Z,15.80
2017-04-07T12:00:09.430Z,15.40
2017-04-07T12:01:10.192Z,15.30
2017-04-07T12:02:10.142Z,15.60
2017-04-07T12:03:10.185Z,15.30
2017-04-07T12:04:10.875Z,15.30
2017-04-07T12:05:10.882Z,15.30
2017-04-07T12:06:11.658Z,15.20
2017-04-07T12:07:11.606Z,15.20
2017-04-07T12:08:11.574Z,14.90
2017-04-07T12:09:11.870Z,15.20
2017-04-07T12:10:11.846Z,14.80
2017-04-07T12:11:35.197Z,15.30
2017-04-07T12:12:35.818Z,15.10
2017-04-07T12:13:36.548Z,15.10
2017-04-07T12:14:37.244Z,15.10
2017-04-07T12:15:37.296Z,15.10
2017-04-07T12:16:37.258Z,15.10
2017-04-07T12:17:37.227Z,15.30
2017-04-07T12:18:37.293Z,15.10
2017-04-07T12:19:37.993Z,15.20
2017-04-07T12:20:38.010Z,14.80
2017-04-07T12:21:37.974Z,15.10
2017-04-07T12:22:37.923Z,14.80
2017-04-07T12:23:37.895Z,15.10
2017-04-07T12:24:37.846Z,14.80
2017-04-07T12:25:38.561Z,14.70
2017-04-07T12:26:39.291Z,14.70
2017-04-07T12:28:40.211Z,14.80
2017-04-07T12:29:40.256Z,14.90
2017-04-07T12:30:40.961Z,14.70
2017-04-07T12:31:41.692Z,14.90
2017-04-07T12:32:42.383Z,14.90
2017-04-07T12:33:42.379Z,15.10
2017-04-07T12:34:43.952Z,15.10
2017-04-07T12:35:45.918Z,14.70
2017-04-07T12:36:46.669Z,14.70
2017-04-07T12:37:49.582Z,14.70
2017-04-07T12:38:49.534Z,14.90
2017-04-07T12:39:50.261Z,14.60
2017-04-07T12:40:50.306Z,14.70
2017-04-07T12:41:50.359Z,14.80
2017-04-07T12:42:51.049Z,15.20
2017-04-07T12:43:50.990Z,15.20
2017-04-07T12:44:51.682Z,15.10
2017-04-07T12:45:51.646Z,15.20
2017-04-07T12:46:51.607Z,15.20
2017-04-07T12:48:51.759Z,15.10
2017-04-07T12:49:51.737Z,15.50
2017-04-07T12:50:52.458Z,15.30
2017-04-07T12:51:53.208Z,15.60
2017-04-07T12:52:53.230Z,15.90
2017-04-07T12:53:53.170Z,15.70
2017-04-07T12:54:53.126Z,15.70
2017-04-07T12:55:53.885Z,15.60
2017-04-07T12:56:53.889Z,15.60
2017-04-07T12:57:54.009Z,15.30
2017-04-07T12:58:54.045Z,15.20
2017-04-07T12:59:54.848Z,15.10
2017-04-07T13:01:55.083Z,15.00
2017-04-07T13:03:55.885Z,14.60
2017-04-07T13:04:55.854Z,14.60
2017-04-07T13:05:56.551Z,14.70
2017-04-07T13:06:57.318Z,14.70
2017-04-07T13:07:57.310Z,14.80
2017-04-07T13:08:57.298Z,14.70
2017-04-07T13:09:58.027Z,15.10
2017-04-07T13:10:59.806Z,15.10
2017-04-07T13:12:11.401Z,15.10
2017-04-07T13:16:06.785Z,15.20
2017-04-07T13:17:06.790Z,15.20
2017-04-07T13:18:06.851Z,15.20
2017-04-07T13:19:06.882Z,15.10
2017-04-07T13:20:08.287Z,15.10
2017-04-07T13:21:08.272Z,15.10
2017-04-07T13:22:08.446Z,15.20
2017-04-07T13:23:09.160Z,15.10
2017-04-07T13:24:09.883Z,15.20
2017-04-07T13:26:10.793Z,14.60
2017-04-07T13:27:10.774Z,14.70
2017-04-07T13:28:10.731Z,14.60
2017-04-07T13:29:11.445Z,14.60
2017-04-07T13:31:11.723Z,14.60
2017-04-07T13:32:11.695Z,14.70
2017-04-07T13:33:11.710Z,14.80
2017-04-07T13:34:12.445Z,14.80
2017-04-07T13:35:12.433Z,15.10
2017-04-07T13:36:12.421Z,15.00
2017-04-07T13:37:13.269Z,15.10
2017-04-07T13:38:13.970Z,15.10
2017-04-07T13:39:14.744Z,15.10
2017-04-07T13:40:14.765Z,15.30
2017-04-07T13:41:14.726Z,15.30
2017-04-07T13:42:15.481Z,15.70
2017-04-07T13:43:15.445Z,15.70
2017-04-07T13:44:16.160Z,15.90
2017-04-07T13:45:16.852Z,15.80
2017-04-07T13:46:16.851Z,15.90
2017-04-07T13:47:16.838Z,16.20
2017-04-07T13:48:16.797Z,16.30
2017-04-07T13:49:16.733Z,16.00
2017-04-07T13:50:16.712Z,15.80
2017-04-07T13:52:17.073Z,15.80
2017-04-07T13:53:17.059Z,15.90
2017-04-07T13:54:17.759Z,16.30
2017-04-07T13:55:17.736Z,16.20
2017-04-07T13:56:17.714Z,16.40